Terminal Aerodrome Forecast
Issued by NWS Cleveland, OH

Home | Current Version | Previous Version | Text Only | Print | Product List | Glossary On
Versions: 1 2 3 4 5 6 7 8 9 10 11 12 13 14 15 16 17 18
000
FTUS41 KCLE 270500 RRA
TAFCAK
TAF
KCAK 270541Z 2706/2806 32008KT P6SM BKN050
     FM271300 32010KT P6SM VCSH BKN025 OVC035
     FM271800 34010G20KT P6SM BKN035 OVC050
     FM272200 35008KT P6SM BKN050=

USA.gov is the U.S. government's official web portal to all federal, state and local government web resources and services.